sensor_id;sensor_type;location;lat;lon;timestamp;P1;durP1;ratioP1;P2;durP2;ratioP2
41249;SDS011;26984;59.928;30.306;2022-11-04T00:01:58;3.28;;;3.08;;
41249;SDS011;26984;59.928;30.306;2022-11-04T00:04:28;3.53;;;3.28;;
41249;SDS011;26984;59.928;30.306;2022-11-04T00:06:58;3.45;;;3.25;;
41249;SDS011;26984;59.928;30.306;2022-11-04T00:09:26;2.53;;;2.33;;
41249;SDS011;26984;59.928;30.306;2022-11-04T00:11:55;3.00;;;2.80;;
41249;SDS011;26984;59.928;30.306;2022-11-04T00:17:44;4.18;;;3.88;;
41249;SDS011;26984;59.928;30.306;2022-11-04T00:20:10;4.00;;;3.70;;
41249;SDS011;26984;59.928;30.306;2022-11-04T00:22:57;3.03;;;2.83;;
41249;SDS011;26984;59.928;30.306;2022-11-04T00:25:42;3.40;;;3.20;;
41249;SDS011;26984;59.928;30.306;2022-11-04T00:28:27;3.30;;;3.00;;
41249;SDS011;26984;59.928;30.306;2022-11-04T00:31:11;3.53;;;2.80;;
41249;SDS011;26984;59.928;30.306;2022-11-04T00:33:58;3.35;;;2.95;;
41249;SDS011;26984;59.928;30.306;2022-11-04T00:36:26;4.13;;;3.90;;
41249;SDS011;26984;59.928;30.306;2022-11-04T00:38:55;4.28;;;3.88;;
41249;SDS011;26984;59.928;30.306;2022-11-04T00:41:23;4.10;;;3.90;;
41249;SDS011;26984;59.928;30.306;2022-11-04T00:43:56;4.50;;;3.90;;
41249;SDS011;26984;59.928;30.306;2022-11-04T00:46:24;3.40;;;3.20;;
41249;SDS011;26984;59.928;30.306;2022-11-04T00:51:20;4.78;;;4.47;;
41249;SDS011;26984;59.928;30.306;2022-11-04T00:53:48;4.00;;;3.70;;
41249;SDS011;26984;59.928;30.306;2022-11-04T00:56:18;3.95;;;3.75;;
41249;SDS011;26984;59.928;30.306;2022-11-04T00:58:46;3.95;;;3.60;;
41249;SDS011;26984;59.928;30.306;2022-11-04T01:01:15;3.72;;;3.50;;
41249;SDS011;26984;59.928;30.306;2022-11-04T01:03:44;4.07;;;3.83;;
41249;SDS011;26984;59.928;30.306;2022-11-04T01:06:12;4.43;;;4.15;;
41249;SDS011;26984;59.928;30.306;2022-11-04T01:11:08;4.32;;;4.03;;
41249;SDS011;26984;59.928;30.306;2022-11-04T01:13:38;3.15;;;2.95;;
41249;SDS011;26984;59.928;30.306;2022-11-04T01:16:07;3.35;;;3.15;;
41249;SDS011;26984;59.928;30.306;2022-11-04T01:18:36;3.70;;;3.40;;
41249;SDS011;26984;59.928;30.306;2022-11-04T01:21:05;4.32;;;3.30;;
41249;SDS011;26984;59.928;30.306;2022-11-04T01:23:34;3.35;;;3.15;;
41249;SDS011;26984;59.928;30.306;2022-11-04T01:26:03;3.22;;;3.03;;
41249;SDS011;26984;59.928;30.306;2022-11-04T01:28:31;3.75;;;2.83;;
41249;SDS011;26984;59.928;30.306;2022-11-04T01:31:05;3.25;;;3.05;;
41249;SDS011;26984;59.928;30.306;2022-11-04T01:33:34;3.35;;;3.15;;
41249;SDS011;26984;59.928;30.306;2022-11-04T01:36:02;3.42;;;2.88;;
41249;SDS011;26984;59.928;30.306;2022-11-04T01:38:31;3.10;;;2.90;;
41249;SDS011;26984;59.928;30.306;2022-11-04T01:40:59;3.42;;;2.58;;
41249;SDS011;26984;59.928;30.306;2022-11-04T01:43:41;2.92;;;2.50;;
41249;SDS011;26984;59.928;30.306;2022-11-04T01:46:15;3.55;;;2.63;;
41249;SDS011;26984;59.928;30.306;2022-11-04T01:48:50;3.35;;;3.13;;
41249;SDS011;26984;59.928;30.306;2022-11-04T01:51:19;4.00;;;2.80;;
41249;SDS011;26984;59.928;30.306;2022-11-04T01:53:48;3.15;;;2.95;;
41249;SDS011;26984;59.928;30.306;2022-11-04T01:56:20;3.42;;;3.22;;
41249;SDS011;26984;59.928;30.306;2022-11-04T01:58:50;3.38;;;3.17;;
41249;SDS011;26984;59.928;30.306;2022-11-04T02:01:21;3.50;;;3.30;;
41249;SDS011;26984;59.928;30.306;2022-11-04T02:03:50;3.58;;;3.38;;
41249;SDS011;26984;59.928;30.306;2022-11-04T02:06:20;3.55;;;3.25;;
41249;SDS011;26984;59.928;30.306;2022-11-04T02:08:49;3.92;;;3.72;;
41249;SDS011;26984;59.928;30.306;2022-11-04T02:11:17;3.67;;;3.47;;
41249;SDS011;26984;59.928;30.306;2022-11-04T02:13:58;3.95;;;3.20;;
41249;SDS011;26984;59.928;30.306;2022-11-04T02:16:31;5.50;;;3.47;;
41249;SDS011;26984;59.928;30.306;2022-11-04T02:19:10;3.50;;;3.20;;
41249;SDS011;26984;59.928;30.306;2022-11-04T02:24:52;3.60;;;3.40;;
41249;SDS011;26984;59.928;30.306;2022-11-04T02:27:32;3.80;;;3.60;;
41249;SDS011;26984;59.928;30.306;2022-11-04T02:30:14;3.63;;;3.20;;
41249;SDS011;26984;59.928;30.306;2022-11-04T02:33:00;2.97;;;2.78;;
41249;SDS011;26984;59.928;30.306;2022-11-04T02:35:39;3.13;;;2.92;;
41249;SDS011;26984;59.928;30.306;2022-11-04T02:38:15;3.22;;;3.03;;
41249;SDS011;26984;59.928;30.306;2022-11-04T02:40:56;3.35;;;3.15;;
41249;SDS011;26984;59.928;30.306;2022-11-04T02:43:36;3.22;;;3.03;;
41249;SDS011;26984;59.928;30.306;2022-11-04T02:46:14;3.70;;;3.40;;
41249;SDS011;26984;59.928;30.306;2022-11-04T02:48:48;3.10;;;2.90;;
41249;SDS011;26984;59.928;30.306;2022-11-04T02:51:23;3.03;;;2.83;;
41249;SDS011;26984;59.928;30.306;2022-11-04T02:53:56;3.55;;;3.22;;
41249;SDS011;26984;59.928;30.306;2022-11-04T02:56:30;4.05;;;2.85;;
41249;SDS011;26984;59.928;30.306;2022-11-04T02:59:04;3.13;;;2.92;;
41249;SDS011;26984;59.928;30.306;2022-11-04T03:01:37;3.20;;;3.00;;
41249;SDS011;26984;59.928;30.306;2022-11-04T03:04:08;3.25;;;2.95;;
41249;SDS011;26984;59.928;30.306;2022-11-04T03:06:40;3.40;;;3.20;;
41249;SDS011;26984;59.928;30.306;2022-11-04T03:09:10;3.67;;;3.38;;
41249;SDS011;26984;59.928;30.306;2022-11-04T03:11:43;3.28;;;3.08;;
41249;SDS011;26984;59.928;30.306;2022-11-04T03:14:15;5.97;;;3.00;;
41249;SDS011;26984;59.928;30.306;2022-11-04T03:16:47;3.00;;;2.80;;
41249;SDS011;26984;59.928;30.306;2022-11-04T03:19:18;3.38;;;3.17;;
41249;SDS011;26984;59.928;30.306;2022-11-04T03:21:54;3.45;;;3.17;;
41249;SDS011;26984;59.928;30.306;2022-11-04T03:24:26;3.78;;;3.17;;
41249;SDS011;26984;59.928;30.306;2022-11-04T03:26:57;3.85;;;3.55;;
41249;SDS011;26984;59.928;30.306;2022-11-04T03:29:28;3.38;;;3.17;;
41249;SDS011;26984;59.928;30.306;2022-11-04T03:32:02;4.43;;;2.85;;
41249;SDS011;26984;59.928;30.306;2022-11-04T03:34:34;3.38;;;3.17;;
41249;SDS011;26984;59.928;30.306;2022-11-04T03:37:03;3.40;;;3.20;;
41249;SDS011;26984;59.928;30.306;2022-11-04T03:42:01;3.40;;;3.20;;
41249;SDS011;26984;59.928;30.306;2022-11-04T03:44:45;3.20;;;3.00;;
41249;SDS011;26984;59.928;30.306;2022-11-04T03:47:16;3.53;;;3.25;;
41249;SDS011;26984;59.928;30.306;2022-11-04T03:49:46;3.35;;;3.13;;
41249;SDS011;26984;59.928;30.306;2022-11-04T03:52:15;3.58;;;3.28;;
41249;SDS011;26984;59.928;30.306;2022-11-04T03:54:45;3.22;;;3.03;;
41249;SDS011;26984;59.928;30.306;2022-11-04T03:57:16;3.28;;;2.97;;
41249;SDS011;26984;59.928;30.306;2022-11-04T04:00:01;3.85;;;3.55;;
41249;SDS011;26984;59.928;30.306;2022-11-04T04:02:38;3.75;;;3.42;;
41249;SDS011;26984;59.928;30.306;2022-11-04T04:05:14;4.18;;;3.78;;
41249;SDS011;26984;59.928;30.306;2022-11-04T04:07:48;3.63;;;3.33;;
41249;SDS011;26984;59.928;30.306;2022-11-04T04:10:25;4.22;;;3.25;;
41249;SDS011;26984;59.928;30.306;2022-11-04T04:13:08;3.13;;;2.92;;
41249;SDS011;26984;59.928;30.306;2022-11-04T04:15:45;3.67;;;3.42;;
41249;SDS011;26984;59.928;30.306;2022-11-04T04:18:22;3.22;;;2.75;;
41249;SDS011;26984;59.928;30.306;2022-11-04T04:20:55;3.42;;;3.05;;
41249;SDS011;26984;59.928;30.306;2022-11-04T04:23:26;3.00;;;2.80;;
41249;SDS011;26984;59.928;30.306;2022-11-04T04:26:15;3.20;;;3.00;;
41249;SDS011;26984;59.928;30.306;2022-11-04T04:29:04;3.20;;;3.00;;
41249;SDS011;26984;59.928;30.306;2022-11-04T04:31:35;3.00;;;2.80;;
41249;SDS011;26984;59.928;30.306;2022-11-04T04:34:20;3.05;;;2.85;;
41249;SDS011;26984;59.928;30.306;2022-11-04T04:36:51;2.90;;;2.70;;
41249;SDS011;26984;59.928;30.306;2022-11-04T04:39:23;3.20;;;2.90;;
41249;SDS011;26984;59.928;30.306;2022-11-04T04:42:13;4.47;;;2.80;;
41249;SDS011;26984;59.928;30.306;2022-11-04T04:44:57;2.97;;;2.78;;
41249;SDS011;26984;59.928;30.306;2022-11-04T04:47:32;2.90;;;2.70;;
41249;SDS011;26984;59.928;30.306;2022-11-04T04:50:05;3.88;;;2.95;;
41249;SDS011;26984;59.928;30.306;2022-11-04T04:52:36;3.03;;;2.83;;
41249;SDS011;26984;59.928;30.306;2022-11-04T04:55:06;2.97;;;2.78;;
41249;SDS011;26984;59.928;30.306;2022-11-04T04:57:35;3.03;;;2.83;;
41249;SDS011;26984;59.928;30.306;2022-11-04T05:00:03;3.83;;;3.30;;
41249;SDS011;26984;59.928;30.306;2022-11-04T05:02:32;3.03;;;2.83;;
41249;SDS011;26984;59.928;30.306;2022-11-04T05:05:00;3.15;;;2.85;;
41249;SDS011;26984;59.928;30.306;2022-11-04T05:07:30;4.35;;;3.25;;
41249;SDS011;26984;59.928;30.306;2022-11-04T05:09:57;3.70;;;3.40;;
41249;SDS011;26984;59.928;30.306;2022-11-04T05:12:25;3.70;;;2.92;;
41249;SDS011;26984;59.928;30.306;2022-11-04T05:15:14;3.60;;;3.40;;
41249;SDS011;26984;59.928;30.306;2022-11-04T05:17:41;3.65;;;3.35;;
41249;SDS011;26984;59.928;30.306;2022-11-04T05:20:10;3.08;;;2.88;;
41249;SDS011;26984;59.928;30.306;2022-11-04T05:22:39;3.95;;;3.65;;
41249;SDS011;26984;59.928;30.306;2022-11-04T05:25:07;3.92;;;3.63;;
41249;SDS011;26984;59.928;30.306;2022-11-04T05:27:34;3.22;;;3.03;;
41249;SDS011;26984;59.928;30.306;2022-11-04T05:30:02;3.55;;;3.25;;
41249;SDS011;26984;59.928;30.306;2022-11-04T05:32:31;3.55;;;3.35;;
41249;SDS011;26984;59.928;30.306;2022-11-04T05:34:58;3.35;;;3.10;;
41249;SDS011;26984;59.928;30.306;2022-11-04T05:39:55;4.15;;;3.40;;
41249;SDS011;26984;59.928;30.306;2022-11-04T05:42:23;3.42;;;3.13;;
41249;SDS011;26984;59.928;30.306;2022-11-04T05:44:51;4.10;;;3.80;;
41249;SDS011;26984;59.928;30.306;2022-11-04T05:47:18;3.22;;;2.92;;
41249;SDS011;26984;59.928;30.306;2022-11-04T05:49:46;5.43;;;3.50;;
41249;SDS011;26984;59.928;30.306;2022-11-04T05:52:14;4.20;;;3.90;;
41249;SDS011;26984;59.928;30.306;2022-11-04T05:54:41;3.72;;;3.42;;
41249;SDS011;26984;59.928;30.306;2022-11-04T05:57:10;3.90;;;3.60;;
41249;SDS011;26984;59.928;30.306;2022-11-04T05:59:38;3.20;;;3.00;;
41249;SDS011;26984;59.928;30.306;2022-11-04T06:02:06;6.65;;;3.40;;
41249;SDS011;26984;59.928;30.306;2022-11-04T06:04:34;5.22;;;3.70;;
41249;SDS011;26984;59.928;30.306;2022-11-04T06:07:02;4.75;;;3.33;;
41249;SDS011;26984;59.928;30.306;2022-11-04T06:09:30;4.25;;;3.55;;
41249;SDS011;26984;59.928;30.306;2022-11-04T06:12:07;3.97;;;3.45;;
41249;SDS011;26984;59.928;30.306;2022-11-04T06:14:37;4.22;;;3.85;;
41249;SDS011;26984;59.928;30.306;2022-11-04T06:17:05;4.28;;;3.63;;
41249;SDS011;26984;59.928;30.306;2022-11-04T06:19:33;3.45;;;3.10;;
41249;SDS011;26984;59.928;30.306;2022-11-04T06:22:01;6.35;;;3.30;;
41249;SDS011;26984;59.928;30.306;2022-11-04T06:24:29;3.25;;;2.95;;
41249;SDS011;26984;59.928;30.306;2022-11-04T06:26:57;5.22;;;3.80;;
41249;SDS011;26984;59.928;30.306;2022-11-04T06:29:25;3.65;;;3.35;;
41249;SDS011;26984;59.928;30.306;2022-11-04T06:31:54;7.28;;;3.88;;
41249;SDS011;26984;59.928;30.306;2022-11-04T06:34:21;7.45;;;4.20;;
41249;SDS011;26984;59.928;30.306;2022-11-04T06:36:49;5.50;;;4.40;;
41249;SDS011;26984;59.928;30.306;2022-11-04T06:39:17;5.38;;;3.40;;
41249;SDS011;26984;59.928;30.306;2022-11-04T06:41:45;4.28;;;3.90;;
41249;SDS011;26984;59.928;30.306;2022-11-04T06:44:13;4.07;;;3.50;;
41249;SDS011;26984;59.928;30.306;2022-11-04T06:46:41;3.95;;;3.65;;
41249;SDS011;26984;59.928;30.306;2022-11-04T06:49:11;4.38;;;4.03;;
41249;SDS011;26984;59.928;30.306;2022-11-04T06:51:40;3.38;;;3.17;;
41249;SDS011;26984;59.928;30.306;2022-11-04T06:56:35;3.95;;;3.53;;
41249;SDS011;26984;59.928;30.306;2022-11-04T06:59:03;4.90;;;3.47;;
41249;SDS011;26984;59.928;30.306;2022-11-04T07:01:32;3.70;;;3.25;;
41249;SDS011;26984;59.928;30.306;2022-11-04T07:04:01;3.63;;;3.33;;
41249;SDS011;26984;59.928;30.306;2022-11-04T07:06:32;4.15;;;3.75;;
41249;SDS011;26984;59.928;30.306;2022-11-04T07:09:00;4.00;;;3.53;;
41249;SDS011;26984;59.928;30.306;2022-11-04T07:11:29;3.92;;;3.63;;
41249;SDS011;26984;59.928;30.306;2022-11-04T07:13:57;4.28;;;3.70;;
41249;SDS011;26984;59.928;30.306;2022-11-04T07:16:25;3.60;;;3.30;;
41249;SDS011;26984;59.928;30.306;2022-11-04T07:18:53;6.00;;;3.08;;
41249;SDS011;26984;59.928;30.306;2022-11-04T07:21:21;4.65;;;4.28;;
41249;SDS011;26984;59.928;30.306;2022-11-04T07:26:18;11.60;;;3.70;;
41249;SDS011;26984;59.928;30.306;2022-11-04T07:31:13;5.57;;;3.50;;
41249;SDS011;26984;59.928;30.306;2022-11-04T07:33:42;4.00;;;3.70;;
41249;SDS011;26984;59.928;30.306;2022-11-04T07:36:14;9.02;;;4.53;;
41249;SDS011;26984;59.928;30.306;2022-11-04T07:38:43;6.05;;;3.92;;
41249;SDS011;26984;59.928;30.306;2022-11-04T07:41:12;6.93;;;3.53;;
41249;SDS011;26984;59.928;30.306;2022-11-04T07:43:41;3.63;;;3.35;;
41249;SDS011;26984;59.928;30.306;2022-11-04T07:46:09;4.50;;;3.78;;
41249;SDS011;26984;59.928;30.306;2022-11-04T07:48:39;6.45;;;3.55;;
41249;SDS011;26984;59.928;30.306;2022-11-04T07:51:08;7.07;;;3.95;;
41249;SDS011;26984;59.928;30.306;2022-11-04T07:53:38;4.18;;;3.80;;
41249;SDS011;26984;59.928;30.306;2022-11-04T07:56:06;6.05;;;5.43;;
41249;SDS011;26984;59.928;30.306;2022-11-04T07:58:38;5.43;;;4.05;;
41249;SDS011;26984;59.928;30.306;2022-11-04T08:01:08;10.60;;;3.55;;
41249;SDS011;26984;59.928;30.306;2022-11-04T08:03:37;8.05;;;3.58;;
41249;SDS011;26984;59.928;30.306;2022-11-04T08:06:06;4.45;;;3.80;;
41249;SDS011;26984;59.928;30.306;2022-11-04T08:08:35;5.13;;;4.15;;
41249;SDS011;26984;59.928;30.306;2022-11-04T08:13:32;4.97;;;3.40;;
41249;SDS011;26984;59.928;30.306;2022-11-04T08:16:03;5.60;;;4.82;;
41249;SDS011;26984;59.928;30.306;2022-11-04T08:18:34;5.32;;;3.63;;
41249;SDS011;26984;59.928;30.306;2022-11-04T08:21:02;4.10;;;3.80;;
41249;SDS011;26984;59.928;30.306;2022-11-04T08:25:59;5.68;;;4.05;;
41249;SDS011;26984;59.928;30.306;2022-11-04T08:28:27;5.60;;;4.28;;
41249;SDS011;26984;59.928;30.306;2022-11-04T08:30:56;9.35;;;4.88;;
41249;SDS011;26984;59.928;30.306;2022-11-04T08:33:27;6.82;;;4.13;;
41249;SDS011;26984;59.928;30.306;2022-11-04T08:35:58;4.97;;;3.85;;
41249;SDS011;26984;59.928;30.306;2022-11-04T08:38:27;6.82;;;4.47;;
41249;SDS011;26984;59.928;30.306;2022-11-04T08:40:55;11.70;;;4.60;;
41249;SDS011;26984;59.928;30.306;2022-11-04T08:43:24;6.60;;;4.85;;
41249;SDS011;26984;59.928;30.306;2022-11-04T08:45:52;5.82;;;5.22;;
41249;SDS011;26984;59.928;30.306;2022-11-04T08:50:49;8.65;;;4.82;;
41249;SDS011;26984;59.928;30.306;2022-11-04T08:53:18;5.25;;;4.65;;
41249;SDS011;26984;59.928;30.306;2022-11-04T08:55:46;7.68;;;4.93;;
41249;SDS011;26984;59.928;30.306;2022-11-04T08:58:14;6.28;;;4.70;;
41249;SDS011;26984;59.928;30.306;2022-11-04T09:03:09;4.65;;;4.03;;
41249;SDS011;26984;59.928;30.306;2022-11-04T09:05:37;8.85;;;5.05;;
41249;SDS011;26984;59.928;30.306;2022-11-04T09:08:11;7.22;;;4.53;;
41249;SDS011;26984;59.928;30.306;2022-11-04T09:10:39;6.13;;;4.47;;
41249;SDS011;26984;59.928;30.306;2022-11-04T09:13:09;5.72;;;5.18;;
41249;SDS011;26984;59.928;30.306;2022-11-04T09:18:04;7.03;;;6.05;;
41249;SDS011;26984;59.928;30.306;2022-11-04T09:20:32;11.85;;;5.85;;
41249;SDS011;26984;59.928;30.306;2022-11-04T09:23:03;6.70;;;4.15;;
41249;SDS011;26984;59.928;30.306;2022-11-04T09:25:33;6.47;;;5.45;;
41249;SDS011;26984;59.928;30.306;2022-11-04T09:28:00;7.25;;;4.82;;
41249;SDS011;26984;59.928;30.306;2022-11-04T09:30:29;8.38;;;5.03;;
41249;SDS011;26984;59.928;30.306;2022-11-04T09:32:57;8.05;;;4.20;;
41249;SDS011;26984;59.928;30.306;2022-11-04T09:35:25;6.70;;;4.43;;
41249;SDS011;26984;59.928;30.306;2022-11-04T09:37:53;4.35;;;3.95;;
41249;SDS011;26984;59.928;30.306;2022-11-04T09:40:22;4.95;;;3.95;;
41249;SDS011;26984;59.928;30.306;2022-11-04T09:42:55;4.55;;;4.15;;
41249;SDS011;26984;59.928;30.306;2022-11-04T09:45:31;5.50;;;4.35;;
41249;SDS011;26984;59.928;30.306;2022-11-04T09:48:00;5.15;;;3.75;;
41249;SDS011;26984;59.928;30.306;2022-11-04T09:50:31;4.47;;;4.07;;
41249;SDS011;26984;59.928;30.306;2022-11-04T09:53:07;4.32;;;3.92;;
41249;SDS011;26984;59.928;30.306;2022-11-04T09:55:46;4.20;;;3.58;;
41249;SDS011;26984;59.928;30.306;2022-11-04T09:58:21;5.22;;;4.45;;
41249;SDS011;26984;59.928;30.306;2022-11-04T10:00:50;6.22;;;4.55;;
41249;SDS011;26984;59.928;30.306;2022-11-04T10:03:28;5.70;;;5.10;;
41249;SDS011;26984;59.928;30.306;2022-11-04T10:06:10;7.00;;;4.60;;
41249;SDS011;26984;59.928;30.306;2022-11-04T10:08:54;5.20;;;4.70;;
41249;SDS011;26984;59.928;30.306;2022-11-04T10:11:36;5.97;;;5.07;;
41249;SDS011;26984;59.928;30.306;2022-11-04T10:14:20;5.80;;;5.20;;
41249;SDS011;26984;59.928;30.306;2022-11-04T10:17:00;9.30;;;5.03;;
41249;SDS011;26984;59.928;30.306;2022-11-04T10:19:42;9.90;;;5.82;;
41249;SDS011;26984;59.928;30.306;2022-11-04T10:22:22;6.63;;;5.13;;
41249;SDS011;26984;59.928;30.306;2022-11-04T10:25:00;8.63;;;5.72;;
41249;SDS011;26984;59.928;30.306;2022-11-04T10:27:35;10.02;;;5.88;;
41249;SDS011;26984;59.928;30.306;2022-11-04T10:30:11;9.05;;;5.60;;
41249;SDS011;26984;59.928;30.306;2022-11-04T10:32:44;7.10;;;5.90;;
41249;SDS011;26984;59.928;30.306;2022-11-04T10:35:20;9.10;;;4.82;;
41249;SDS011;26984;59.928;30.306;2022-11-04T10:37:54;10.20;;;5.90;;
41249;SDS011;26984;59.928;30.306;2022-11-04T10:40:28;5.53;;;4.43;;
41249;SDS011;26984;59.928;30.306;2022-11-04T10:43:02;7.13;;;4.95;;
41249;SDS011;26984;59.928;30.306;2022-11-04T10:45:37;8.23;;;5.35;;
41249;SDS011;26984;59.928;30.306;2022-11-04T10:48:11;5.65;;;4.93;;
41249;SDS011;26984;59.928;30.306;2022-11-04T10:50:46;8.80;;;5.15;;
41249;SDS011;26984;59.928;30.306;2022-11-04T10:53:19;6.35;;;5.05;;
41249;SDS011;26984;59.928;30.306;2022-11-04T10:55:51;7.90;;;5.35;;
41249;SDS011;26984;59.928;30.306;2022-11-04T10:58:26;9.60;;;5.35;;
41249;SDS011;26984;59.928;30.306;2022-11-04T11:00:58;6.63;;;4.68;;
41249;SDS011;26984;59.928;30.306;2022-11-04T11:03:27;8.45;;;5.10;;
41249;SDS011;26984;59.928;30.306;2022-11-04T11:06:10;7.32;;;4.75;;
41249;SDS011;26984;59.928;30.306;2022-11-04T11:08:41;8.70;;;5.38;;
41249;SDS011;26984;59.928;30.306;2022-11-04T11:11:10;7.28;;;5.53;;
41249;SDS011;26984;59.928;30.306;2022-11-04T11:13:40;9.07;;;5.53;;
41249;SDS011;26984;59.928;30.306;2022-11-04T11:16:12;7.85;;;4.93;;
41249;SDS011;26984;59.928;30.306;2022-11-04T11:18:45;6.50;;;4.72;;
41249;SDS011;26984;59.928;30.306;2022-11-04T11:21:44;9.20;;;5.28;;
41249;SDS011;26984;59.928;30.306;2022-11-04T11:24:15;7.80;;;5.47;;
41249;SDS011;26984;59.928;30.306;2022-11-04T11:26:47;5.78;;;5.15;;
41249;SDS011;26984;59.928;30.306;2022-11-04T11:29:23;8.15;;;5.10;;
41249;SDS011;26984;59.928;30.306;2022-11-04T11:31:55;7.43;;;5.65;;
41249;SDS011;26984;59.928;30.306;2022-11-04T11:34:24;7.32;;;5.85;;
41249;SDS011;26984;59.928;30.306;2022-11-04T11:36:55;6.85;;;5.25;;
41249;SDS011;26984;59.928;30.306;2022-11-04T11:39:25;10.85;;;5.97;;
41249;SDS011;26984;59.928;30.306;2022-11-04T11:41:56;7.32;;;5.97;;
41249;SDS011;26984;59.928;30.306;2022-11-04T11:44:27;6.30;;;5.10;;
41249;SDS011;26984;59.928;30.306;2022-11-04T11:47:00;6.82;;;5.03;;
41249;SDS011;26984;59.928;30.306;2022-11-04T11:49:30;4.85;;;4.38;;
41249;SDS011;26984;59.928;30.306;2022-11-04T11:55:00;7.90;;;5.72;;
41249;SDS011;26984;59.928;30.306;2022-11-04T11:57:34;8.40;;;5.20;;
41249;SDS011;26984;59.928;30.306;2022-11-04T12:00:10;7.95;;;5.03;;
41249;SDS011;26984;59.928;30.306;2022-11-04T12:02:45;8.00;;;5.13;;
41249;SDS011;26984;59.928;30.306;2022-11-04T12:05:20;5.60;;;5.07;;
41249;SDS011;26984;59.928;30.306;2022-11-04T12:07:55;7.45;;;5.13;;
41249;SDS011;26984;59.928;30.306;2022-11-04T12:10:32;9.73;;;6.80;;
41249;SDS011;26984;59.928;30.306;2022-11-04T12:13:05;11.85;;;6.38;;
41249;SDS011;26984;59.928;30.306;2022-11-04T12:18:59;9.55;;;7.50;;
41249;SDS011;26984;59.928;30.306;2022-11-04T12:21:38;11.48;;;7.78;;
41249;SDS011;26984;59.928;30.306;2022-11-04T12:24:16;9.48;;;6.70;;
41249;SDS011;26984;59.928;30.306;2022-11-04T12:26:55;7.53;;;6.80;;
41249;SDS011;26984;59.928;30.306;2022-11-04T12:29:36;9.95;;;6.47;;
41249;SDS011;26984;59.928;30.306;2022-11-04T12:32:17;9.43;;;6.70;;
41249;SDS011;26984;59.928;30.306;2022-11-04T12:34:58;7.10;;;5.97;;
41249;SDS011;26984;59.928;30.306;2022-11-04T12:37:39;11.27;;;7.45;;
41249;SDS011;26984;59.928;30.306;2022-11-04T12:40:14;10.23;;;7.05;;
41249;SDS011;26984;59.928;30.306;2022-11-04T12:42:54;8.43;;;5.82;;
41249;SDS011;26984;59.928;30.306;2022-11-04T12:45:34;6.97;;;5.63;;
41249;SDS011;26984;59.928;30.306;2022-11-04T12:48:17;9.70;;;6.43;;
41249;SDS011;26984;59.928;30.306;2022-11-04T12:51:02;9.30;;;6.30;;
41249;SDS011;26984;59.928;30.306;2022-11-04T12:53:43;9.73;;;7.03;;
41249;SDS011;26984;59.928;30.306;2022-11-04T12:56:24;9.05;;;6.95;;
41249;SDS011;26984;59.928;30.306;2022-11-04T12:59:07;13.13;;;8.32;;
41249;SDS011;26984;59.928;30.306;2022-11-04T13:01:47;8.15;;;6.70;;
41249;SDS011;26984;59.928;30.306;2022-11-04T13:04:19;9.02;;;8.13;;
41249;SDS011;26984;59.928;30.306;2022-11-04T13:06:51;10.15;;;7.63;;
41249;SDS011;26984;59.928;30.306;2022-11-04T13:09:24;8.98;;;6.93;;
41249;SDS011;26984;59.928;30.306;2022-11-04T13:12:00;7.45;;;6.55;;
41249;SDS011;26984;59.928;30.306;2022-11-04T13:14:35;8.25;;;5.93;;
41249;SDS011;26984;59.928;30.306;2022-11-04T13:17:09;9.63;;;6.38;;
41249;SDS011;26984;59.928;30.306;2022-11-04T13:19:42;14.15;;;6.68;;
41249;SDS011;26984;59.928;30.306;2022-11-04T13:22:16;10.57;;;6.32;;
41249;SDS011;26984;59.928;30.306;2022-11-04T13:24:49;11.43;;;7.57;;
41249;SDS011;26984;59.928;30.306;2022-11-04T13:27:20;11.23;;;7.47;;
41249;SDS011;26984;59.928;30.306;2022-11-04T13:29:53;13.02;;;7.65;;
41249;SDS011;26984;59.928;30.306;2022-11-04T13:32:30;13.20;;;8.70;;
41249;SDS011;26984;59.928;30.306;2022-11-04T13:35:03;9.55;;;7.95;;
41249;SDS011;26984;59.928;30.306;2022-11-04T13:37:45;8.27;;;7.32;;
41249;SDS011;26984;59.928;30.306;2022-11-04T13:40:19;8.77;;;7.60;;
41249;SDS011;26984;59.928;30.306;2022-11-04T13:42:58;12.10;;;7.90;;
41249;SDS011;26984;59.928;30.306;2022-11-04T13:45:58;9.52;;;7.43;;
41249;SDS011;26984;59.928;30.306;2022-11-04T13:48:27;11.75;;;8.27;;
41249;SDS011;26984;59.928;30.306;2022-11-04T13:50:58;10.82;;;8.35;;
41249;SDS011;26984;59.928;30.306;2022-11-04T13:56:26;11.60;;;7.88;;
41249;SDS011;26984;59.928;30.306;2022-11-04T13:58:55;13.18;;;8.02;;
41249;SDS011;26984;59.928;30.306;2022-11-04T14:01:26;9.10;;;8.15;;
41249;SDS011;26984;59.928;30.306;2022-11-04T14:04:04;9.70;;;8.70;;
41249;SDS011;26984;59.928;30.306;2022-11-04T14:06:49;15.18;;;8.02;;
41249;SDS011;26984;59.928;30.306;2022-11-04T14:09:30;9.60;;;8.27;;
41249;SDS011;26984;59.928;30.306;2022-11-04T14:12:22;10.82;;;9.65;;
41249;SDS011;26984;59.928;30.306;2022-11-04T14:20:28;9.63;;;8.52;;
41249;SDS011;26984;59.928;30.306;2022-11-04T14:22:58;9.52;;;8.23;;
41249;SDS011;26984;59.928;30.306;2022-11-04T14:25:32;9.82;;;8.52;;
41249;SDS011;26984;59.928;30.306;2022-11-04T14:28:15;11.38;;;8.60;;
41249;SDS011;26984;59.928;30.306;2022-11-04T14:30:47;16.65;;;9.13;;
41249;SDS011;26984;59.928;30.306;2022-11-04T14:33:21;11.65;;;8.88;;
41249;SDS011;26984;59.928;30.306;2022-11-04T14:36:15;12.20;;;9.10;;
41249;SDS011;26984;59.928;30.306;2022-11-04T14:38:57;12.23;;;10.55;;
41249;SDS011;26984;59.928;30.306;2022-11-04T14:44:29;9.73;;;8.02;;
41249;SDS011;26984;59.928;30.306;2022-11-04T14:47:00;11.60;;;8.70;;
41249;SDS011;26984;59.928;30.306;2022-11-04T14:49:35;12.30;;;9.40;;
41249;SDS011;26984;59.928;30.306;2022-11-04T14:52:11;12.18;;;8.93;;
41249;SDS011;26984;59.928;30.306;2022-11-04T14:54:43;15.35;;;8.57;;
41249;SDS011;26984;59.928;30.306;2022-11-04T14:59:44;12.18;;;8.57;;
41249;SDS011;26984;59.928;30.306;2022-11-04T15:02:14;10.15;;;8.43;;
41249;SDS011;26984;59.928;30.306;2022-11-04T15:04:46;11.93;;;8.80;;
41249;SDS011;26984;59.928;30.306;2022-11-04T15:07:22;16.65;;;9.38;;
41249;SDS011;26984;59.928;30.306;2022-11-04T15:09:52;14.70;;;9.45;;
41249;SDS011;26984;59.928;30.306;2022-11-04T15:12:21;12.07;;;9.02;;
41249;SDS011;26984;59.928;30.306;2022-11-04T15:17:56;10.57;;;9.15;;
41249;SDS011;26984;59.928;30.306;2022-11-04T15:20:28;15.43;;;10.05;;
41249;SDS011;26984;59.928;30.306;2022-11-04T15:22:58;12.70;;;9.00;;
41249;SDS011;26984;59.928;30.306;2022-11-04T15:25:28;13.07;;;8.88;;
41249;SDS011;26984;59.928;30.306;2022-11-04T15:27:59;15.05;;;9.63;;
41249;SDS011;26984;59.928;30.306;2022-11-04T15:30:27;12.77;;;10.05;;
41249;SDS011;26984;59.928;30.306;2022-11-04T15:32:58;16.42;;;9.85;;
41249;SDS011;26984;59.928;30.306;2022-11-04T15:35:27;14.45;;;9.77;;
41249;SDS011;26984;59.928;30.306;2022-11-04T15:37:57;13.20;;;10.05;;
41249;SDS011;26984;59.928;30.306;2022-11-04T15:40:27;14.88;;;10.00;;
41249;SDS011;26984;59.928;30.306;2022-11-04T15:42:56;13.93;;;9.98;;
41249;SDS011;26984;59.928;30.306;2022-11-04T15:45:30;12.88;;;9.70;;
41249;SDS011;26984;59.928;30.306;2022-11-04T15:51:00;13.82;;;9.85;;
41249;SDS011;26984;59.928;30.306;2022-11-04T15:53:45;13.48;;;9.80;;
41249;SDS011;26984;59.928;30.306;2022-11-04T15:56:16;14.27;;;9.73;;
41249;SDS011;26984;59.928;30.306;2022-11-04T15:58:48;13.77;;;10.48;;
41249;SDS011;26984;59.928;30.306;2022-11-04T16:01:18;16.63;;;10.73;;
41249;SDS011;26984;59.928;30.306;2022-11-04T16:03:48;14.70;;;11.10;;
41249;SDS011;26984;59.928;30.306;2022-11-04T16:06:30;16.75;;;12.45;;